Time;durP1;ratioP1;P1;durP2;ratioP2;P2;SDS_P1;SDS_P2;PMS_P1;PMS_P2;Temp;Humidity;BMP_temperature;BMP_pressure;BME280_temperature;BME280_humidity;BME280_pressure;Samples;Min_cycle;Max_cycle;Signal;HPM_P1;HPM_P2
2021/04/25 00:00:39;;;;;;;9.88;3.25;;;9.70;75.60;;;;;;4978908;28;20030;-85
2021/04/25 00:03:04;;;;;;;7.95;3.33;;;9.60;76.30;;;;;;4975607;28;20396;-85
2021/04/25 00:05:30;;;;;;;10.80;3.40;;;9.60;76.90;;;;;;4976475;28;20501;-84
2021/04/25 00:07:56;;;;;;;9.75;3.30;;;9.60;77.50;;;;;;4976521;28;20031;-84
2021/04/25 00:10:21;;;;;;;7.53;3.22;;;9.50;78.50;;;;;;4960580;28;20476;-85
2021/04/25 00:12:48;;;;;;;9.20;3.00;;;9.50;79.30;;;;;;4984633;28;20026;-85
2021/04/25 00:15:21;;;;;;;7.82;3.17;;;9.40;80.10;;;;;;4999294;28;20032;-85
2021/04/25 00:17:46;;;;;;;7.05;3.47;;;9.40;80.80;;;;;;5016687;28;20030;-85
2021/04/25 00:20:13;;;;;;;10.32;3.45;;;9.30;81.90;;;;;;4999811;28;20037;-85
2021/04/25 00:22:39;;;;;;;7.35;3.35;;;9.30;82.80;;;;;;5011919;28;20150;-85
2021/04/25 00:25:07;;;;;;;7.10;3.00;;;9.30;83.60;;;;;;4998832;28;20125;-86
2021/04/25 00:27:34;;;;;;;10.95;3.55;;;9.30;84.50;;;;;;5014538;28;20036;-85
2021/04/25 00:29:59;;;;;;;8.25;3.53;;;9.20;85.60;;;;;;5017205;28;20049;-84
2021/04/25 00:32:26;;;;;;;8.27;2.72;;;9.20;86.50;;;;;;5016359;28;20030;-85
2021/04/25 00:34:51;;;;;;;11.65;3.28;;;9.20;87.50;;;;;;5015125;28;20448;-85
2021/04/25 00:37:17;;;;;;;7.20;2.92;;;9.20;88.20;;;;;;5015287;28;20168;-85
2021/04/25 00:39:43;;;;;;;9.20;3.53;;;9.10;89.00;;;;;;5016109;28;20044;-85
2021/04/25 00:42:10;;;;;;;9.63;3.08;;;9.10;90.00;;;;;;4998519;28;20072;-85
2021/04/25 00:44:36;;;;;;;9.55;3.13;;;9.10;90.10;;;;;;4998024;28;20034;-85
2021/04/25 00:47:01;;;;;;;6.22;3.28;;;9.10;90.30;;;;;;4998692;28;20498;-84
2021/04/25 00:49:28;;;;;;;8.13;3.63;;;9.10;90.60;;;;;;4998369;28;20026;-84
2021/04/25 00:51:53;;;;;;;9.07;3.17;;;9.10;90.90;;;;;;4998420;28;20022;-83
2021/04/25 00:54:19;;;;;;;6.70;3.15;;;9.00;91.10;;;;;;4998703;28;20036;-84
2021/04/25 00:56:45;;;;;;;7.25;2.90;;;9.00;91.40;;;;;;5015251;28;20116;-85
2021/04/25 00:59:11;;;;;;;9.15;3.83;;;9.00;91.80;;;;;;5016069;28;20033;-85
2021/04/25 01:01:36;;;;;;;9.05;3.22;;;8.90;92.40;;;;;;4995587;28;20048;-85
2021/04/25 01:04:02;;;;;;;7.45;3.20;;;8.90;92.60;;;;;;4995276;28;20036;-85
2021/04/25 01:06:28;;;;;;;11.50;3.20;;;8.90;92.90;;;;;;4978999;28;20034;-85
2021/04/25 01:08:54;;;;;;;7.57;3.25;;;8.90;92.80;;;;;;4979160;28;20069;-85
2021/04/25 01:11:19;;;;;;;8.35;3.10;;;8.90;93.10;;;;;;4996013;28;20026;-85
2021/04/25 01:13:50;;;;;;;10.10;3.22;;;8.80;93.30;;;;;;4996291;28;20026;-85
2021/04/25 01:16:15;;;;;;;9.15;3.10;;;8.80;93.70;;;;;;4982918;28;20026;-86
2021/04/25 01:18:41;;;;;;;17.08;3.33;;;8.80;93.90;;;;;;4987130;28;20017;-85
2021/04/25 01:21:06;;;;;;;6.60;2.70;;;8.80;94.00;;;;;;5018570;28;20041;-85
2021/04/25 01:23:32;;;;;;;10.80;3.17;;;8.80;94.10;;;;;;5001429;28;20033;-85
2021/04/25 01:25:58;;;;;;;6.43;2.92;;;8.80;94.20;;;;;;5017619;28;20071;-85
2021/04/25 01:28:24;;;;;;;6.82;3.58;;;8.70;94.30;;;;;;5018059;28;20050;-85
2021/04/25 01:30:50;;;;;;;10.77;3.28;;;8.70;94.50;;;;;;5019836;28;20483;-84
2021/04/25 01:33:16;;;;;;;5.47;2.97;;;8.70;94.80;;;;;;5001740;28;20025;-85
2021/04/25 01:35:42;;;;;;;7.28;2.90;;;8.60;94.90;;;;;;5019847;28;20025;-85
2021/04/25 01:38:07;;;;;;;8.43;3.42;;;8.60;94.90;;;;;;5002357;28;20057;-85
2021/04/25 01:40:33;;;;;;;7.43;3.00;;;8.60;95.00;;;;;;5020118;28;20033;-84
2021/04/25 01:43:00;;;;;;;9.27;3.22;;;8.60;95.30;;;;;;5020033;28;20050;-84
2021/04/25 01:45:27;;;;;;;7.05;2.88;;;8.60;95.30;;;;;;5018054;28;20148;-85
2021/04/25 01:47:58;;;;;;;10.13;3.70;;;8.60;95.40;;;;;;5017963;28;20034;-85
2021/04/25 01:50:26;;;;;;;8.18;3.35;;;8.60;95.40;;;;;;5019498;28;20045;-85
2021/04/25 01:52:53;;;;;;;6.80;2.85;;;8.60;95.50;;;;;;5018140;28;20030;-84
2021/04/25 01:55:21;;;;;;;11.00;3.08;;;8.60;95.50;;;;;;5019319;28;20018;-85
2021/04/25 01:57:47;;;;;;;8.82;2.90;;;8.50;95.80;;;;;;5019271;28;20404;-85
2021/04/25 02:00:19;;;;;;;9.18;3.35;;;8.50;95.90;;;;;;5018912;28;20113;-84
2021/04/25 02:02:51;;;;;;;6.72;3.20;;;8.40;96.30;;;;;;5018787;28;20097;-85
2021/04/25 02:05:16;;;;;;;11.07;3.80;;;8.30;96.70;;;;;;5017256;28;20121;-85
2021/04/25 02:07:42;;;;;;;10.27;3.95;;;8.30;97.00;;;;;;5000649;28;20061;-84
2021/04/25 02:10:08;;;;;;;9.07;3.63;;;8.20;97.10;;;;;;5000786;28;20395;-85
2021/04/25 02:12:34;;;;;;;8.10;3.03;;;8.30;97.40;;;;;;5014975;28;20072;-85
2021/04/25 02:15:00;;;;;;;9.38;3.50;;;8.20;97.60;;;;;;4981081;28;20030;-85
2021/04/25 02:17:26;;;;;;;8.20;3.63;;;8.10;98.20;;;;;;4981539;28;20030;-83
2021/04/25 02:19:52;;;;;;;8.25;3.40;;;8.10;98.50;;;;;;4981082;28;20033;-85
2021/04/25 02:22:17;;;;;;;10.25;3.67;;;8.10;98.60;;;;;;5000792;28;20029;-85
2021/04/25 02:24:43;;;;;;;6.90;3.50;;;8.10;98.90;;;;;;5000779;28;20021;-85
2021/04/25 02:27:08;;;;;;;8.35;3.45;;;8.00;99.10;;;;;;5000293;28;20049;-84
2021/04/25 02:29:34;;;;;;;12.50;3.70;;;7.90;99.50;;;;;;5007426;28;20081;-85
2021/04/25 02:32:00;;;;;;;9.88;3.95;;;7.90;99.50;;;;;;4981006;28;20027;-85
2021/04/25 02:34:25;;;;;;;7.20;3.60;;;7.90;99.50;;;;;;4980784;28;20105;-86
2021/04/25 02:36:51;;;;;;;8.02;3.55;;;7.90;99.70;;;;;;4981010;28;20033;-85
2021/04/25 02:39:18;;;;;;;8.68;3.85;;;8.00;99.90;;;;;;4981554;28;20026;-85
2021/04/25 02:41:44;;;;;;;9.82;3.65;;;8.00;99.90;;;;;;4981339;28;20023;-86
2021/04/25 02:44:09;;;;;;;10.00;3.67;;;7.90;99.90;;;;;;4998919;28;20105;-85
2021/04/25 02:46:35;;;;;;;10.20;3.90;;;7.90;99.90;;;;;;4981330;28;20030;-84
2021/04/25 02:49:00;;;;;;;7.53;3.63;;;7.90;99.90;;;;;;4981037;28;20023;-84
2021/04/25 02:51:26;;;;;;;9.95;3.42;;;7.90;99.90;;;;;;4980895;28;20387;-85
2021/04/25 02:53:52;;;;;;;7.22;3.65;;;7.80;99.90;;;;;;4980587;28;20071;-85
2021/04/25 02:56:17;;;;;;;9.18;3.97;;;7.80;99.90;;;;;;4980399;28;20054;-84
2021/04/25 02:58:43;;;;;;;9.45;3.58;;;7.80;99.90;;;;;;4981024;28;20483;-85
2021/04/25 03:01:08;;;;;;;7.50;3.33;;;7.90;99.90;;;;;;4980799;28;20576;-84
2021/04/25 03:03:34;;;;;;;8.90;3.45;;;7.90;99.90;;;;;;4998075;28;20030;-84
2021/04/25 03:05:59;;;;;;;11.13;4.18;;;7.90;99.90;;;;;;4980548;28;20508;-85
2021/04/25 03:08:25;;;;;;;12.45;4.40;;;8.00;99.90;;;;;;4997321;28;20022;-85
2021/04/25 03:10:51;;;;;;;9.02;4.07;;;8.10;99.90;;;;;;5000865;28;20026;-85
2021/04/25 03:13:17;;;;;;;8.65;3.97;;;8.10;99.90;;;;;;5001717;28;20026;-85
2021/04/25 03:15:43;;;;;;;11.43;3.42;;;8.20;99.90;;;;;;4998261;28;20105;-85
2021/04/25 03:18:09;;;;;;;8.02;3.15;;;8.20;99.90;;;;;;4986481;28;20021;-84
2021/04/25 03:20:34;;;;;;;11.38;4.32;;;8.20;99.90;;;;;;5014162;28;20022;-85
2021/04/25 03:23:01;;;;;;;8.75;3.30;;;8.20;99.80;;;;;;4998777;28;20023;-84
2021/04/25 03:25:27;;;;;;;9.95;3.45;;;8.10;99.90;;;;;;4980499;28;20019;-84
2021/04/25 03:27:53;;;;;;;10.98;4.47;;;8.00;99.60;;;;;;5007989;28;20033;-85
2021/04/25 03:30:19;;;;;;;11.25;3.70;;;8.00;99.90;;;;;;5015691;28;20121;-85
2021/04/25 03:32:45;;;;;;;9.60;3.83;;;8.00;99.90;;;;;;4999439;28;20525;-85
2021/04/25 03:35:13;;;;;;;10.35;4.38;;;7.90;99.90;;;;;;5012270;28;20514;-85
2021/04/25 03:37:39;;;;;;;7.05;3.28;;;7.90;99.90;;;;;;4995452;28;20084;-85
2021/04/25 03:40:07;;;;;;;9.88;4.20;;;7.90;99.90;;;;;;4979565;28;20026;-85
2021/04/25 03:42:33;;;;;;;8.95;4.05;;;7.80;99.90;;;;;;4979820;28;20062;-84
2021/04/25 03:44:59;;;;;;;10.30;4.18;;;7.80;99.90;;;;;;4991339;28;20076;-85
2021/04/25 03:47:25;;;;;;;9.13;4.40;;;7.80;99.90;;;;;;5015084;28;20025;-85
2021/04/25 03:49:51;;;;;;;8.60;4.20;;;7.70;99.90;;;;;;5016796;28;20541;-85
2021/04/25 03:52:17;;;;;;;12.77;3.78;;;7.70;99.90;;;;;;4998510;28;20038;-85
2021/04/25 03:54:42;;;;;;;10.05;4.00;;;7.60;99.90;;;;;;4986124;28;20026;-85
2021/04/25 03:57:08;;;;;;;7.90;3.90;;;7.60;99.90;;;;;;4996405;28;20523;-87
2021/04/25 03:59:34;;;;;;;8.25;3.65;;;7.60;99.90;;;;;;4979308;28;20076;-85
2021/04/25 04:02:00;;;;;;;9.50;3.70;;;7.60;99.90;;;;;;4994698;28;20026;-84
2021/04/25 04:04:26;;;;;;;10.32;3.90;;;7.60;99.90;;;;;;4995614;28;20041;-85
2021/04/25 04:06:51;;;;;;;9.48;4.00;;;7.60;99.90;;;;;;4978711;28;20550;-84
2021/04/25 04:09:18;;;;;;;8.57;3.67;;;7.50;99.90;;;;;;4996850;28;20050;-84
2021/04/25 04:11:47;;;;;;;8.85;3.83;;;7.50;99.90;;;;;;4978620;28;20081;-85
2021/04/25 04:14:13;;;;;;;10.48;4.38;;;7.40;99.90;;;;;;4978654;28;20022;-84
2021/04/25 04:16:39;;;;;;;10.55;3.80;;;7.30;99.90;;;;;;4978123;28;20085;-85
2021/04/25 04:19:04;;;;;;;8.10;3.92;;;7.20;99.90;;;;;;4978783;28;20102;-85
2021/04/25 04:21:31;;;;;;;9.13;3.75;;;7.20;99.90;;;;;;4978116;28;20442;-84
2021/04/25 04:23:56;;;;;;;11.15;4.10;;;7.10;99.90;;;;;;4996134;28;20027;-84
2021/04/25 04:26:22;;;;;;;7.55;3.50;;;7.10;99.90;;;;;;4998423;28;20037;-83
2021/04/25 04:28:47;;;;;;;8.88;3.85;;;7.10;99.90;;;;;;4997354;28;20128;-83
2021/04/25 04:31:13;;;;;;;7.60;3.65;;;7.00;99.90;;;;;;4994214;28;20501;-85
2021/04/25 04:33:39;;;;;;;9.45;4.57;;;6.90;99.90;;;;;;4995935;28;20040;-84
2021/04/25 04:36:05;;;;;;;8.45;3.90;;;6.90;99.90;;;;;;4985734;28;20060;-84
2021/04/25 04:38:31;;;;;;;9.15;4.13;;;6.90;99.90;;;;;;4995920;28;20034;-85
2021/04/25 04:40:57;;;;;;;8.52;4.07;;;6.90;99.90;;;;;;4979430;28;20031;-85
2021/04/25 04:43:23;;;;;;;8.02;4.18;;;6.90;99.90;;;;;;4994497;28;20026;-85
2021/04/25 04:45:49;;;;;;;7.72;3.40;;;6.90;99.90;;;;;;5006728;23;20046;-81
2021/04/25 04:48:15;;;;;;;8.75;3.88;;;6.90;99.90;;;;;;4997323;28;20050;-81
2021/04/25 04:50:44;;;;;;;8.27;3.50;;;6.90;99.90;;;;;;4996783;28;20035;-81
2021/04/25 04:53:09;;;;;;;9.00;4.13;;;6.80;99.90;;;;;;4978721;28;20032;-81
2021/04/25 04:55:35;;;;;;;9.20;4.18;;;6.80;99.90;;;;;;4979177;28;20116;-80
2021/04/25 04:58:01;;;;;;;10.02;4.32;;;6.90;99.90;;;;;;4997011;28;20493;-81
2021/04/25 05:00:26;;;;;;;10.40;4.30;;;6.90;99.90;;;;;;4978909;28;20034;-81
2021/04/25 05:02:52;;;;;;;8.88;3.70;;;6.90;99.90;;;;;;4996111;28;20022;-81
2021/04/25 05:05:18;;;;;;;9.57;3.92;;;6.80;99.90;;;;;;5015633;28;20026;-81
2021/04/25 05:07:44;;;;;;;9.48;4.57;;;6.90;99.90;;;;;;4998307;28;20380;-81
2021/04/25 05:10:10;;;;;;;8.88;4.20;;;7.00;99.90;;;;;;5015881;28;20029;-81
2021/04/25 05:12:36;;;;;;;10.32;4.45;;;7.00;99.90;;;;;;4997914;28;20034;-81
2021/04/25 05:15:02;;;;;;;10.40;4.63;;;7.20;99.90;;;;;;4998596;28;20394;-81
2021/04/25 05:17:27;;;;;;;10.63;4.35;;;7.30;99.90;;;;;;5016290;28;20022;-81
2021/04/25 05:19:53;;;;;;;9.55;4.55;;;7.30;99.90;;;;;;4994049;28;20035;-81
2021/04/25 05:22:19;;;;;;;10.05;4.43;;;7.40;99.90;;;;;;4996542;28;20022;-81
2021/04/25 05:24:47;;;;;;;12.02;4.78;;;7.40;99.90;;;;;;4996357;28;20134;-81
2021/04/25 05:27:13;;;;;;;11.07;5.35;;;7.40;99.90;;;;;;4997955;28;20023;-81
2021/04/25 05:29:39;;;;;;;10.20;4.85;;;7.50;99.90;;;;;;4998317;28;20053;-81
2021/04/25 05:32:05;;;;;;;8.93;4.45;;;7.60;99.90;;;;;;5016475;28;20026;-81
2021/04/25 05:34:30;;;;;;;9.73;4.60;;;7.60;99.90;;;;;;5016686;28;20678;-81
2021/04/25 05:36:56;;;;;;;12.85;5.13;;;7.70;99.90;;;;;;4995030;28;20124;-81
2021/04/25 05:39:22;;;;;;;12.27;5.47;;;7.90;99.90;;;;;;4979579;28;20026;-82
2021/04/25 05:41:47;;;;;;;14.30;5.97;;;7.90;99.90;;;;;;4996621;28;20030;-82
2021/04/25 05:44:13;;;;;;;10.57;5.22;;;8.00;99.90;;;;;;4997456;28;20027;-81
2021/04/25 05:46:39;;;;;;;11.77;5.30;;;8.10;99.90;;;;;;4996980;28;20045;-82
2021/04/25 05:49:05;;;;;;;12.75;5.15;;;8.20;99.90;;;;;;4997425;28;20126;-82
2021/04/25 05:51:30;;;;;;;13.48;5.55;;;8.30;99.90;;;;;;4996491;28;20153;-82
2021/04/25 05:53:56;;;;;;;11.50;5.47;;;8.40;99.90;;;;;;4979202;28;20114;-82
2021/04/25 05:56:22;;;;;;;11.07;4.93;;;8.40;99.90;;;;;;4998407;28;20350;-82
2021/04/25 05:58:48;;;;;;;12.65;5.38;;;8.40;99.90;;;;;;5016595;28;20026;-82
2021/04/25 06:01:15;;;;;;;12.98;5.45;;;8.50;99.90;;;;;;5018077;28;20033;-82
2021/04/25 06:03:40;;;;;;;13.20;5.68;;;8.60;99.90;;;;;;4992110;28;20049;-82
2021/04/25 06:06:06;;;;;;;13.23;5.80;;;8.60;99.90;;;;;;4983342;28;20535;-82
2021/04/25 06:08:32;;;;;;;10.80;5.13;;;8.60;99.90;;;;;;5001310;28;20034;-82
2021/04/25 06:10:57;;;;;;;16.88;6.45;;;8.70;99.90;;;;;;5001299;28;20101;-82
2021/04/25 06:13:23;;;;;;;11.85;5.80;;;8.80;99.90;;;;;;4996506;28;20022;-82
2021/04/25 06:15:48;;;;;;;12.32;5.80;;;8.80;99.90;;;;;;5000454;28;20026;-82
2021/04/25 06:18:14;;;;;;;10.68;5.65;;;8.80;99.90;;;;;;4983193;28;20161;-82
2021/04/25 06:20:40;;;;;;;11.55;5.60;;;8.90;99.90;;;;;;4995753;28;20030;-82
2021/04/25 06:23:05;;;;;;;14.63;5.90;;;9.00;99.90;;;;;;5002023;28;20062;-82
2021/04/25 06:25:31;;;;;;;13.60;5.88;;;9.10;99.70;;;;;;5000980;28;20054;-82
2021/04/25 06:27:57;;;;;;;11.10;5.50;;;9.10;99.60;;;;;;5008251;28;20018;-81
2021/04/25 06:30:23;;;;;;;13.23;6.22;;;9.10;99.80;;;;;;5015929;28;20132;-82
2021/04/25 06:32:49;;;;;;;14.57;5.78;;;9.10;99.50;;;;;;5022241;28;20034;-82
2021/04/25 06:35:16;;;;;;;12.05;5.85;;;9.30;99.60;;;;;;5021125;28;20050;-82
2021/04/25 06:37:44;;;;;;;13.70;5.45;;;9.40;99.40;;;;;;4996235;28;20057;-82
2021/04/25 06:40:11;;;;;;;11.98;6.13;;;9.60;98.70;;;;;;5008491;28;20026;-82
2021/04/25 06:42:39;;;;;;;12.88;5.32;;;9.60;98.50;;;;;;5006214;28;20081;-82
2021/04/25 06:45:10;;;;;;;14.48;6.18;;;9.70;98.30;;;;;;5001278;28;20143;-82
2021/04/25 06:47:36;;;;;;;17.75;6.72;;;9.70;97.90;;;;;;4999963;28;20057;-82
2021/04/25 06:50:02;;;;;;;13.60;6.25;;;9.70;98.00;;;;;;5023564;28;20041;-82
2021/04/25 06:52:27;;;;;;;13.60;6.25;;;9.70;97.80;;;;;;5023269;28;20034;-83
2021/04/25 06:54:53;;;;;;;14.98;6.40;;;9.70;98.10;;;;;;5000885;28;20061;-82
2021/04/25 06:57:19;;;;;;;14.85;6.65;;;9.80;97.90;;;;;;5000988;28;20026;-82
2021/04/25 06:59:44;;;;;;;13.65;6.75;;;9.90;97.90;;;;;;5002317;28;20391;-82
2021/04/25 07:02:10;;;;;;;19.23;6.85;;;10.10;97.50;;;;;;5000749;28;20034;-83
2021/04/25 07:04:35;;;;;;;11.30;6.20;;;10.20;97.20;;;;;;4993656;28;20038;-84
2021/04/25 07:07:01;;;;;;;12.60;6.70;;;10.30;96.70;;;;;;5021343;28;20050;-83
2021/04/25 07:09:26;;;;;;;12.13;6.55;;;10.20;96.70;;;;;;4997649;28;20037;-83
2021/04/25 07:11:52;;;;;;;15.07;6.63;;;10.20;96.80;;;;;;5021914;28;20109;-83
2021/04/25 07:14:18;;;;;;;16.10;7.57;;;10.30;96.30;;;;;;5022531;28;20022;-83
2021/04/25 07:16:43;;;;;;;16.05;7.38;;;10.40;95.80;;;;;;4994688;28;20026;-82
2021/04/25 07:19:09;;;;;;;15.55;7.40;;;10.50;95.40;;;;;;5018996;28;20539;-82
2021/04/25 07:21:35;;;;;;;11.93;7.22;;;10.50;95.40;;;;;;4999697;28;20061;-82
2021/04/25 07:24:01;;;;;;;19.90;8.60;;;10.50;95.40;;;;;;4997288;28;20033;-82
2021/04/25 07:26:26;;;;;;;17.63;8.43;;;10.50;95.30;;;;;;5022658;28;20026;-83
2021/04/25 07:28:52;;;;;;;15.98;8.07;;;10.50;94.60;;;;;;4997573;28;20026;-83
2021/04/25 07:31:18;;;;;;;17.90;8.00;;;10.60;94.80;;;;;;5008507;28;20021;-82
2021/04/25 07:33:43;;;;;;;15.57;8.15;;;10.70;94.80;;;;;;5002270;28;20030;-80
2021/04/25 07:36:09;;;;;;;14.63;8.38;;;10.80;94.30;;;;;;5003037;28;20021;-81
2021/04/25 07:38:37;;;;;;;15.68;8.07;;;11.00;94.10;;;;;;5018277;28;20109;-81
2021/04/25 07:41:03;;;;;;;15.68;8.23;;;11.10;93.60;;;;;;4995439;28;20026;-81
2021/04/25 07:43:29;;;;;;;16.38;8.15;;;11.20;93.20;;;;;;5019436;28;20482;-81
2021/04/25 07:45:55;;;;;;;15.95;7.05;;;11.30;92.70;;;;;;4995225;28;20041;-81
2021/04/25 07:48:20;;;;;;;15.98;7.93;;;11.40;92.30;;;;;;4999793;28;20022;-81
2021/04/25 07:50:47;;;;;;;17.80;7.85;;;11.40;92.10;;;;;;4997619;28;20034;-81
2021/04/25 07:53:12;;;;;;;16.55;7.50;;;11.40;92.30;;;;;;4996303;28;20590;-81
2021/04/25 07:55:38;;;;;;;15.18;7.55;;;11.20;92.20;;;;;;4989829;28;20108;-81
2021/04/25 07:58:04;;;;;;;19.63;8.02;;;11.40;92.20;;;;;;5016855;28;20032;-82
2021/04/25 08:00:29;;;;;;;18.95;7.88;;;11.50;92.00;;;;;;5012433;28;20432;-81
2021/04/25 08:02:55;;;;;;;17.38;7.95;;;11.60;91.80;;;;;;5015559;28;20022;-81
2021/04/25 08:05:20;;;;;;;15.95;8.05;;;11.80;91.20;;;;;;4997941;28;20044;-81
2021/04/25 08:07:47;;;;;;;15.13;8.40;;;11.90;90.70;;;;;;4993847;28;20044;-81
2021/04/25 08:10:13;;;;;;;15.32;8.25;;;11.80;90.80;;;;;;4994477;28;20033;-81
2021/04/25 08:12:39;;;;;;;16.00;7.90;;;11.80;90.80;;;;;;4994010;28;20018;-81
2021/04/25 08:15:06;;;;;;;16.25;8.63;;;11.70;91.10;;;;;;4999528;28;20025;-81
2021/04/25 08:17:32;;;;;;;13.80;7.75;;;11.70;90.80;;;;;;4991727;28;20022;-81
2021/04/25 08:19:59;;;;;;;13.70;8.15;;;11.90;90.50;;;;;;5014550;28;20029;-81
2021/04/25 08:22:24;;;;;;;17.67;9.02;;;12.20;89.80;;;;;;4990035;28;20082;-82
2021/04/25 08:24:50;;;;;;;16.75;8.57;;;12.10;90.00;;;;;;4982619;28;20054;-82
2021/04/25 08:27:15;;;;;;;15.73;8.77;;;12.10;89.80;;;;;;4991357;28;20129;-82
2021/04/25 08:29:41;;;;;;;16.25;8.18;;;12.10;90.00;;;;;;5010608;28;20474;-81
2021/04/25 08:32:06;;;;;;;16.10;8.43;;;12.10;90.20;;;;;;4995713;28;20037;-82
2021/04/25 08:34:32;;;;;;;16.45;9.32;;;12.40;89.40;;;;;;4997079;28;20034;-81
2021/04/25 08:36:58;;;;;;;20.25;8.88;;;12.50;88.40;;;;;;5013632;28;20064;-82
2021/04/25 08:39:23;;;;;;;14.23;8.40;;;12.60;87.80;;;;;;4999103;28;20057;-81
2021/04/25 08:41:49;;;;;;;16.83;9.13;;;12.80;86.00;;;;;;4995621;28;20678;-81
2021/04/25 08:44:19;;;;;;;18.33;7.82;;;12.70;87.20;;;;;;5012354;28;20022;-82
2021/04/25 08:46:47;;;;;;;15.98;8.20;;;12.90;86.20;;;;;;4996510;28;20340;-82
2021/04/25 08:49:16;;;;;;;14.82;8.32;;;13.00;85.50;;;;;;4991284;28;20089;-82
2021/04/25 08:51:42;;;;;;;16.83;8.50;;;13.00;83.40;;;;;;5013857;28;20026;-82
2021/04/25 08:54:08;;;;;;;17.33;8.65;;;13.00;84.20;;;;;;4991273;28;20114;-83
2021/04/25 08:56:34;;;;;;;16.92;8.82;;;13.00;84.20;;;;;;5000414;28;20127;-82
2021/04/25 08:59:00;;;;;;;15.98;8.95;;;13.10;83.90;;;;;;4985119;28;20026;-83
2021/04/25 09:01:26;;;;;;;15.32;8.32;;;13.20;83.70;;;;;;5011475;28;20058;-83
2021/04/25 09:03:52;;;;;;;14.40;7.72;;;13.40;82.20;;;;;;5010462;28;20023;-82
2021/04/25 09:06:18;;;;;;;15.05;8.23;;;13.30;82.10;;;;;;4988702;28;20022;-82
2021/04/25 09:08:44;;;;;;;17.05;8.88;;;13.30;81.60;;;;;;5013656;28;20022;-82
2021/04/25 09:11:30;;;;;;;15.63;8.43;;;13.40;81.10;;;;;;4996058;28;20026;-82
2021/04/25 09:14:24;;;;;;;14.98;8.15;;;13.30;81.70;;;;;;5009748;28;20352;-89
2021/04/25 09:17:00;;;;;;;12.98;7.15;;;13.40;81.60;;;;;;4994677;28;20129;-82
2021/04/25 09:19:46;;;;;;;15.32;7.57;;;13.50;78.90;;;;;;5011854;28;20109;-81
2021/04/25 09:22:11;;;;;;;14.10;7.85;;;13.50;78.50;;;;;;5011395;28;20034;-82
2021/04/25 09:24:37;;;;;;;11.75;6.68;;;13.40;78.10;;;;;;5012862;28;20041;-81
2021/04/25 09:27:04;;;;;;;17.35;7.40;;;13.60;78.10;;;;;;5014364;28;20030;-82
2021/04/25 09:29:50;;;;;;;11.88;7.22;;;13.80;77.10;;;;;;4994584;28;20022;-82
2021/04/25 09:32:19;;;;;;;14.23;7.40;;;14.00;75.00;;;;;;5015835;28;20033;-82
2021/04/25 09:34:45;;;;;;;14.18;6.88;;;14.10;75.20;;;;;;5015696;28;20029;-82
2021/04/25 09:37:13;;;;;;;14.48;7.05;;;14.20;73.90;;;;;;5003144;28;20078;-82
2021/04/25 09:39:39;;;;;;;12.82;7.35;;;14.20;72.30;;;;;;5009721;28;20022;-81
2021/04/25 09:42:07;;;;;;;16.23;7.95;;;14.20;72.40;;;;;;5015731;28;20520;-81
2021/04/25 09:44:36;;;;;;;13.88;7.18;;;14.20;72.60;;;;;;5019236;28;20022;-83
2021/04/25 09:47:04;;;;;;;12.55;7.55;;;14.20;71.80;;;;;;4997810;28;20274;-84
2021/04/25 09:49:46;;;;;;;10.85;6.47;;;14.30;71.40;;;;;;5005829;28;20085;-83
2021/04/25 09:52:14;;;;;;;12.43;7.03;;;14.40;70.60;;;;;;4997479;28;20019;-83
2021/04/25 09:54:42;;;;;;;14.85;7.38;;;14.40;69.70;;;;;;5003643;28;20037;-83
2021/04/25 09:57:27;;;;;;;13.40;6.20;;;14.50;69.00;;;;;;5027285;28;20030;-83
2021/04/25 09:59:53;;;;;;;14.02;6.78;;;14.50;69.50;;;;;;5002653;28;20034;-83
2021/04/25 10:02:19;;;;;;;12.38;6.82;;;14.60;69.30;;;;;;4998651;28;20069;-84
2021/04/25 10:04:45;;;;;;;15.32;7.18;;;14.80;69.60;;;;;;5000016;28;20057;-83
2021/04/25 10:07:10;;;;;;;13.52;6.82;;;14.70;69.10;;;;;;4993889;28;20034;-83
2021/04/25 10:09:36;;;;;;;9.43;5.57;;;14.70;66.50;;;;;;5004252;28;20398;-84
2021/04/25 10:12:03;;;;;;;9.95;6.22;;;15.00;66.00;;;;;;4998808;28;20036;-83
2021/04/25 10:14:31;;;;;;;12.70;6.10;;;15.10;66.80;;;;;;5010116;28;20018;-83
2021/04/25 10:16:58;;;;;;;13.73;5.88;;;15.10;65.60;;;;;;4983093;28;20027;-84
2021/04/25 10:19:25;;;;;;;15.15;7.15;;;15.10;67.60;;;;;;4983900;28;20023;-83
2021/04/25 10:21:52;;;;;;;11.63;6.45;;;15.10;67.00;;;;;;5008545;28;20631;-83
2021/04/25 10:24:22;;;;;;;12.20;7.68;;;15.40;66.00;;;;;;5003848;28;20068;-84
2021/04/25 10:27:13;;;;;;;13.60;7.03;;;15.50;65.10;;;;;;5004910;28;20026;-83
2021/04/25 10:29:44;;;;;;;12.65;6.75;;;15.70;65.50;;;;;;5020471;28;20037;-84
2021/04/25 10:32:12;;;;;;;11.68;6.85;;;15.70;64.50;;;;;;4994199;28;20503;-83
2021/04/25 10:34:38;;;;;;;9.90;6.68;;;15.80;64.90;;;;;;4993991;28;20030;-84
2021/04/25 10:37:08;;;;;;;11.82;6.78;;;15.70;64.00;;;;;;5009835;28;20042;-83
2021/04/25 10:39:53;;;;;;;10.88;6.43;;;15.90;63.60;;;;;;5001733;28;20034;-84
2021/04/25 10:44:56;;;;;;;13.27;7.55;;;16.10;62.60;;;;;;5015804;28;20084;-85
2021/04/25 10:47:26;;;;;;;10.95;6.88;;;16.20;62.30;;;;;;5003034;28;20034;-84
2021/04/25 10:49:54;;;;;;;13.02;7.00;;;16.20;62.50;;;;;;4995754;28;20030;-83
2021/04/25 10:52:19;;;;;;;11.52;7.03;;;16.20;62.20;;;;;;5002344;28;20056;-84
2021/04/25 10:55:10;;;;;;;10.82;6.25;;;16.10;61.70;;;;;;4998723;28;20088;-83
2021/04/25 10:58:04;;;;;;;11.98;7.00;;;16.40;61.20;;;;;;4997718;28;20030;-84
2021/04/25 11:00:33;;;;;;;10.90;5.93;;;16.40;59.10;;;;;;4995199;28;20034;-83
2021/04/25 11:03:00;;;;;;;11.05;5.60;;;16.50;59.10;;;;;;5002024;28;20030;-84
2021/04/25 11:05:35;;;;;;;11.13;5.90;;;16.70;59.40;;;;;;5016677;28;20568;-84
2021/04/25 11:08:02;;;;;;;13.45;6.25;;;16.80;58.30;;;;;;5021603;28;20026;-83
2021/04/25 11:10:47;;;;;;;11.32;5.97;;;17.00;58.00;;;;;;4994590;28;20030;-84
2021/04/25 11:13:44;;;;;;;13.15;5.50;;;16.80;58.70;;;;;;4986964;28;20026;-84
2021/04/25 11:16:13;;;;;;;10.25;5.43;;;17.00;58.00;;;;;;4997671;28;20021;-84
2021/04/25 11:18:56;;;;;;;9.15;5.47;;;17.10;56.10;;;;;;5004469;28;20056;-84
2021/04/25 11:21:31;;;;;;;9.13;5.28;;;17.30;56.30;;;;;;5004439;28;20467;-84
2021/04/25 11:23:59;;;;;;;8.80;4.53;;;17.20;53.80;;;;;;5003211;28;20496;-84
2021/04/25 11:26:42;;;;;;;10.98;5.60;;;17.10;54.20;;;;;;5020090;28;20119;-85
2021/04/25 11:29:27;;;;;;;11.80;4.93;;;17.40;53.50;;;;;;4995282;28;20081;-85
2021/04/25 11:31:55;;;;;;;9.65;4.80;;;17.50;53.00;;;;;;4998025;28;20088;-85
2021/04/25 11:34:34;;;;;;;8.27;4.05;;;17.60;51.30;;;;;;4998831;28;20048;-84
2021/04/25 11:37:18;;;;;;;9.98;4.45;;;17.80;51.10;;;;;;5014684;28;20018;-85
2021/04/25 11:39:58;;;;;;;6.85;3.72;;;18.10;50.60;;;;;;5014844;28;20026;-84
2021/04/25 11:42:29;;;;;;;8.65;3.90;;;18.30;49.00;;;;;;5001651;28;20049;-84
2021/04/25 11:44:59;;;;;;;10.75;4.55;;;18.40;48.00;;;;;;4992769;28;20026;-85
2021/04/25 11:47:29;;;;;;;11.23;5.40;;;18.50;51.00;;;;;;4991502;28;20071;-85
2021/04/25 11:49:57;;;;;;;7.70;4.82;;;18.60;50.50;;;;;;5001842;28;20487;-84
2021/04/25 11:52:28;;;;;;;10.05;4.90;;;18.80;49.90;;;;;;5000568;28;20037;-84
2021/04/25 11:55:06;;;;;;;9.98;4.55;;;18.40;50.10;;;;;;4991792;28;20018;-84
2021/04/25 11:57:40;;;;;;;8.50;4.60;;;18.20;50.20;;;;;;4983135;28;20420;-84
2021/04/25 12:00:16;;;;;;;9.52;3.90;;;18.40;50.00;;;;;;4981178;28;20018;-84
2021/04/25 12:02:45;;;;;;;9.98;4.40;;;18.90;47.90;;;;;;4998259;28;20018;-85
2021/04/25 12:05:13;;;;;;;10.25;3.58;;;18.90;47.70;;;;;;4987944;28;20033;-84
2021/04/25 12:07:48;;;;;;;7.10;3.72;;;18.90;47.60;;;;;;5000346;28;20034;-85
2021/04/25 12:10:22;;;;;;;5.88;3.28;;;18.80;46.50;;;;;;4995537;28;20025;-85
2021/04/25 12:13:08;;;;;;;6.65;3.13;;;19.10;45.30;;;;;;4994749;28;20080;-84
2021/04/25 12:15:50;;;;;;;7.07;3.92;;;19.10;44.50;;;;;;4989778;28;20117;-83
2021/04/25 12:18:37;;;;;;;8.02;3.65;;;19.10;43.60;;;;;;4993267;28;20387;-84
2021/04/25 12:21:08;;;;;;;7.10;3.33;;;19.00;44.60;;;;;;5000830;28;20042;-83
2021/04/25 12:23:37;;;;;;;8.85;3.22;;;19.20;45.90;;;;;;5005554;28;20049;-84
2021/04/25 12:26:07;;;;;;;6.38;3.40;;;19.40;46.20;;;;;;5006768;28;20026;-84
2021/04/25 12:28:38;;;;;;;8.40;3.25;;;19.70;43.80;;;;;;5013135;28;20101;-83
2021/04/25 12:31:05;;;;;;;7.65;3.28;;;19.80;43.30;;;;;;5014943;28;20086;-83
2021/04/25 12:33:40;;;;;;;6.88;2.90;;;19.60;43.40;;;;;;4995432;28;20061;-84
2021/04/25 12:36:07;;;;;;;7.57;2.70;;;19.50;41.20;;;;;;5013328;28;20033;-84
2021/04/25 12:38:35;;;;;;;5.32;2.70;;;19.80;42.20;;;;;;5013040;28;20034;-84
2021/04/25 12:41:11;;;;;;;9.57;3.30;;;20.20;41.60;;;;;;5007955;28;20026;-84
2021/04/25 12:43:54;;;;;;;6.00;2.80;;;20.50;42.50;;;;;;5014132;28;20045;-83
2021/04/25 12:46:26;;;;;;;7.88;2.70;;;20.50;41.70;;;;;;5032529;28;20542;-84
2021/04/25 12:48:58;;;;;;;5.47;2.38;;;20.60;40.60;;;;;;5031257;28;20029;-84
2021/04/25 12:51:28;;;;;;;7.47;2.70;;;20.30;40.40;;;;;;4983283;28;20057;-84